sensor_id;sensor_type;location;lat;lon;timestamp;pressure;altitude;pressure_sealevel;temperature;humidity
5814;BME280;2933;52.302;8.134;2023-01-26T00:00:55;101363.78;;;-2.22;100.00
5814;BME280;2933;52.302;8.134;2023-01-26T00:05:56;101339.84;;;-2.35;100.00
5814;BME280;2933;52.302;8.134;2023-01-26T00:11:02;101338.13;;;-2.34;100.00
5814;BME280;2933;52.302;8.134;2023-01-26T00:16:07;101358.63;;;-2.28;100.00
5814;BME280;2933;52.302;8.134;2023-01-26T00:21:11;101355.25;;;-2.22;100.00
5814;BME280;2933;52.302;8.134;2023-01-26T00:26:15;101358.56;;;-2.39;100.00
5814;BME280;2933;52.302;8.134;2023-01-26T00:31:20;101341.50;;;-2.38;100.00
5814;BME280;2933;52.302;8.134;2023-01-26T00:36:22;101337.31;;;-2.27;100.00
5814;BME280;2933;52.302;8.134;2023-01-26T00:41:24;101316.72;;;-2.46;100.00
5814;BME280;2933;52.302;8.134;2023-01-26T00:46:44;101343.34;;;-2.19;100.00
5814;BME280;2933;52.302;8.134;2023-01-26T00:51:46;101343.31;;;-2.23;100.00
5814;BME280;2933;52.302;8.134;2023-01-26T00:56:47;101342.50;;;-2.13;100.00
5814;BME280;2933;52.302;8.134;2023-01-26T01:01:50;101333.03;;;-2.30;100.00
5814;BME280;2933;52.302;8.134;2023-01-26T01:06:52;101334.72;;;-2.33;100.00
5814;BME280;2933;52.302;8.134;2023-01-26T01:11:53;101338.09;;;-2.39;100.00
5814;BME280;2933;52.302;8.134;2023-01-26T01:16:56;101332.91;;;-2.47;100.00
5814;BME280;2933;52.302;8.134;2023-01-26T01:21:58;101320.97;;;-2.51;100.00
5814;BME280;2933;52.302;8.134;2023-01-26T01:26:59;101324.44;;;-2.41;100.00
5814;BME280;2933;52.302;8.134;2023-01-26T01:32:02;101315.91;;;-2.40;100.00
5814;BME280;2933;52.302;8.134;2023-01-26T01:37:04;101308.16;;;-2.49;100.00
5814;BME280;2933;52.302;8.134;2023-01-26T01:42:06;101301.34;;;-2.49;100.00
5814;BME280;2933;52.302;8.134;2023-01-26T01:47:12;101294.47;;;-2.62;100.00
5814;BME280;2933;52.302;8.134;2023-01-26T01:52:18;101302.09;;;-2.64;100.00
5814;BME280;2933;52.302;8.134;2023-01-26T01:57:25;101304.59;;;-2.71;100.00
5814;BME280;2933;52.302;8.134;2023-01-26T02:02:29;101289.31;;;-2.65;100.00
5814;BME280;2933;52.302;8.134;2023-01-26T02:07:31;101296.13;;;-2.67;100.00
5814;BME280;2933;52.302;8.134;2023-01-26T02:12:33;101297.84;;;-2.62;100.00
5814;BME280;2933;52.302;8.134;2023-01-26T02:17:38;101271.34;;;-2.73;100.00
5814;BME280;2933;52.302;8.134;2023-01-26T02:22:44;101294.41;;;-2.68;100.00
5814;BME280;2933;52.302;8.134;2023-01-26T02:27:50;101281.47;;;-2.88;100.00
5814;BME280;2933;52.302;8.134;2023-01-26T02:32:51;101279.00;;;-2.78;100.00
5814;BME280;2933;52.302;8.134;2023-01-26T02:37:53;101269.63;;;-2.74;100.00
5814;BME280;2933;52.302;8.134;2023-01-26T02:42:56;101275.72;;;-2.60;100.00
5814;BME280;2933;52.302;8.134;2023-01-26T02:47:57;101275.75;;;-2.53;100.00
5814;BME280;2933;52.302;8.134;2023-01-26T02:53:03;101255.22;;;-2.66;100.00
5814;BME280;2933;52.302;8.134;2023-01-26T02:58:06;101274.84;;;-2.60;100.00
5814;BME280;2933;52.302;8.134;2023-01-26T03:03:11;101273.13;;;-2.66;100.00
5814;BME280;2933;52.302;8.134;2023-01-26T03:08:14;101279.00;;;-2.78;100.00
5814;BME280;2933;52.302;8.134;2023-01-26T03:13:16;101280.78;;;-2.64;100.00
5814;BME280;2933;52.302;8.134;2023-01-26T03:18:19;101270.59;;;-2.60;100.00
5814;BME280;2933;52.302;8.134;2023-01-26T03:23:39;101272.28;;;-2.60;100.00
5814;BME280;2933;52.302;8.134;2023-01-26T03:28:59;101262.03;;;-2.65;100.00
5814;BME280;2933;52.302;8.134;2023-01-26T03:34:01;101269.75;;;-2.54;100.00
5814;BME280;2933;52.302;8.134;2023-01-26T03:39:02;101274.91;;;-2.48;100.00
5814;BME280;2933;52.302;8.134;2023-01-26T03:44:05;101263.91;;;-2.37;100.00
5814;BME280;2933;52.302;8.134;2023-01-26T03:49:25;101251.91;;;-2.46;100.00
5814;BME280;2933;52.302;8.134;2023-01-26T03:54:44;101238.25;;;-2.48;100.00
5814;BME280;2933;52.302;8.134;2023-01-26T04:00:06;101246.81;;;-2.41;100.00
5814;BME280;2933;52.302;8.134;2023-01-26T04:05:07;101244.25;;;-2.43;100.00
5814;BME280;2933;52.302;8.134;2023-01-26T04:10:26;101249.31;;;-2.49;100.00
5814;BME280;2933;52.302;8.134;2023-01-26T04:15:29;101250.19;;;-2.42;100.00
5814;BME280;2933;52.302;8.134;2023-01-26T04:20:48;101249.28;;;-2.55;100.00
5814;BME280;2933;52.302;8.134;2023-01-26T04:26:07;101245.81;;;-2.65;100.00
5814;BME280;2933;52.302;8.134;2023-01-26T04:31:10;101250.97;;;-2.57;100.00
5814;BME280;2933;52.302;8.134;2023-01-26T04:36:12;101237.31;;;-2.63;100.00
5814;BME280;2933;52.302;8.134;2023-01-26T04:41:13;101234.75;;;-2.64;100.00
5814;BME280;2933;52.302;8.134;2023-01-26T04:46:16;101233.94;;;-2.55;100.00
5814;BME280;2933;52.302;8.134;2023-01-26T04:51:19;101226.22;;;-2.62;100.00
5814;BME280;2933;52.302;8.134;2023-01-26T04:56:22;101228.00;;;-2.48;100.00
5814;BME280;2933;52.302;8.134;2023-01-26T05:01:26;101221.22;;;-2.34;100.00
5814;BME280;2933;52.302;8.134;2023-01-26T05:06:28;101232.34;;;-2.32;100.00
5814;BME280;2933;52.302;8.134;2023-01-26T05:11:29;101212.72;;;-2.36;100.00
5814;BME280;2933;52.302;8.134;2023-01-26T05:16:32;101198.19;;;-2.45;100.00
5814;BME280;2933;52.302;8.134;2023-01-26T05:21:34;101224.69;;;-2.24;100.00
5814;BME280;2933;52.302;8.134;2023-01-26T05:26:35;101234.13;;;-2.20;100.00
5814;BME280;2933;52.302;8.134;2023-01-26T05:31:38;101234.94;;;-2.25;100.00
5814;BME280;2933;52.302;8.134;2023-01-26T05:36:40;101231.50;;;-2.28;100.00
5814;BME280;2933;52.302;8.134;2023-01-26T05:41:42;101234.91;;;-2.30;100.00
5814;BME280;2933;52.302;8.134;2023-01-26T05:46:44;101224.66;;;-2.35;100.00
5814;BME280;2933;52.302;8.134;2023-01-26T05:51:46;101228.06;;;-2.36;100.00
5814;BME280;2933;52.302;8.134;2023-01-26T05:56:48;101223.75;;;-2.41;100.00
5814;BME280;2933;52.302;8.134;2023-01-26T06:01:51;101227.19;;;-2.38;100.00
5814;BME280;2933;52.302;8.134;2023-01-26T06:06:53;101230.69;;;-2.22;100.00
5814;BME280;2933;52.302;8.134;2023-01-26T06:11:55;101213.59;;;-2.28;100.00
5814;BME280;2933;52.302;8.134;2023-01-26T06:16:58;101226.44;;;-2.17;100.00
5814;BME280;2933;52.302;8.134;2023-01-26T06:22:00;101229.88;;;-2.16;100.00
5814;BME280;2933;52.302;8.134;2023-01-26T06:27:02;101221.34;;;-2.07;100.00
5814;BME280;2933;52.302;8.134;2023-01-26T06:32:08;101234.13;;;-2.12;100.00
5814;BME280;2933;52.302;8.134;2023-01-26T06:37:10;101229.88;;;-2.05;100.00
5814;BME280;2933;52.302;8.134;2023-01-26T06:42:13;101226.47;;;-2.07;100.00
5814;BME280;2933;52.302;8.134;2023-01-26T06:47:15;101233.28;;;-2.09;100.00
5814;BME280;2933;52.302;8.134;2023-01-26T06:52:29;101235.00;;;-2.07;100.00
5814;BME280;2933;52.302;8.134;2023-01-26T06:57:31;101229.81;;;-2.25;100.00
5814;BME280;2933;52.302;8.134;2023-01-26T07:02:34;101229.81;;;-2.27;100.00
5814;BME280;2933;52.302;8.134;2023-01-26T07:07:35;101233.25;;;-2.25;100.00
5814;BME280;2933;52.302;8.134;2023-01-26T07:12:38;101232.41;;;-2.13;100.00
5814;BME280;2933;52.302;8.134;2023-01-26T07:17:41;101230.72;;;-2.11;100.00
5814;BME280;2933;52.302;8.134;2023-01-26T07:22:42;101238.41;;;-2.11;100.00
5814;BME280;2933;52.302;8.134;2023-01-26T07:27:44;101235.84;;;-2.09;100.00
5814;BME280;2933;52.302;8.134;2023-01-26T07:32:47;101245.22;;;-2.13;100.00
5814;BME280;2933;52.302;8.134;2023-01-26T07:37:48;101242.66;;;-2.16;100.00
5814;BME280;2933;52.302;8.134;2023-01-26T07:42:50;101244.38;;;-2.12;100.00
5814;BME280;2933;52.302;8.134;2023-01-26T07:47:54;101245.25;;;-2.05;100.00
5814;BME280;2933;52.302;8.134;2023-01-26T07:52:58;101245.25;;;-2.07;100.00
5814;BME280;2933;52.302;8.134;2023-01-26T07:58:00;101257.25;;;-1.93;100.00
5814;BME280;2933;52.302;8.134;2023-01-26T08:03:03;101258.94;;;-1.88;100.00
5814;BME280;2933;52.302;8.134;2023-01-26T08:08:05;101248.72;;;-1.85;100.00
5814;BME280;2933;52.302;8.134;2023-01-26T08:13:08;101254.72;;;-1.80;100.00
5814;BME280;2933;52.302;8.134;2023-01-26T08:18:11;101264.06;;;-1.88;100.00
5814;BME280;2933;52.302;8.134;2023-01-26T08:23:13;101238.47;;;-1.91;100.00
5814;BME280;2933;52.302;8.134;2023-01-26T08:28:14;101262.44;;;-1.76;100.00
5814;BME280;2933;52.302;8.134;2023-01-26T08:33:17;101245.34;;;-1.71;100.00
5814;BME280;2933;52.302;8.134;2023-01-26T08:38:19;101247.06;;;-1.63;100.00
5814;BME280;2933;52.302;8.134;2023-01-26T08:43:20;101275.25;;;-1.63;100.00
5814;BME280;2933;52.302;8.134;2023-01-26T08:48:23;101241.94;;;-1.73;100.00
5814;BME280;2933;52.302;8.134;2023-01-26T08:53:25;101255.56;;;-1.73;100.00
5814;BME280;2933;52.302;8.134;2023-01-26T08:58:27;101262.44;;;-1.59;100.00
5814;BME280;2933;52.302;8.134;2023-01-26T09:03:30;101263.28;;;-1.64;100.00
5814;BME280;2933;52.302;8.134;2023-01-26T09:08:32;101257.31;;;-1.58;100.00
5814;BME280;2933;52.302;8.134;2023-01-26T09:13:34;101254.75;;;-1.52;100.00
5814;BME280;2933;52.302;8.134;2023-01-26T09:18:37;101263.31;;;-1.54;100.00
5814;BME280;2933;52.302;8.134;2023-01-26T09:23:39;101273.56;;;-1.48;100.00
5814;BME280;2933;52.302;8.134;2023-01-26T09:28:40;101280.41;;;-1.50;100.00
5814;BME280;2933;52.302;8.134;2023-01-26T09:33:43;101263.31;;;-1.54;100.00
5814;BME280;2933;52.302;8.134;2023-01-26T09:38:45;101242.81;;;-1.45;100.00
5814;BME280;2933;52.302;8.134;2023-01-26T09:43:49;101265.06;;;-1.32;100.00
5814;BME280;2933;52.302;8.134;2023-01-26T09:49:01;101248.81;;;-1.41;100.00
5814;BME280;2933;52.302;8.134;2023-01-26T09:54:13;101264.19;;;-1.35;100.00
5814;BME280;2933;52.302;8.134;2023-01-26T09:59:29;101267.63;;;-1.25;100.00
5814;BME280;2933;52.302;8.134;2023-01-26T10:04:39;101255.66;;;-1.39;100.00
5814;BME280;2933;52.302;8.134;2023-01-26T10:09:45;101257.34;;;-1.21;100.00
5814;BME280;2933;52.302;8.134;2023-01-26T10:14:50;101241.13;;;-1.32;100.00
5814;BME280;2933;52.302;8.134;2023-01-26T10:19:57;101254.81;;;-1.11;100.00
5814;BME280;2933;52.302;8.134;2023-01-26T10:25:01;101247.09;;;-1.15;100.00
5814;BME280;2933;52.302;8.134;2023-01-26T10:30:07;101231.72;;;-1.18;100.00
5814;BME280;2933;52.302;8.134;2023-01-26T10:35:17;101245.41;;;-1.09;100.00
5814;BME280;2933;52.302;8.134;2023-01-26T10:40:19;101230.88;;;-1.17;100.00
5814;BME280;2933;52.302;8.134;2023-01-26T10:45:27;101229.16;;;-1.10;100.00
5814;BME280;2933;52.302;8.134;2023-01-26T10:50:30;101226.59;;;-0.93;100.00
5814;BME280;2933;52.302;8.134;2023-01-26T10:55:32;101228.28;;;-1.01;100.00
5814;BME280;2933;52.302;8.134;2023-01-26T11:00:35;101227.41;;;-0.86;100.00
5814;BME280;2933;52.302;8.134;2023-01-26T11:05:38;101230.00;;;-0.83;100.00
5814;BME280;2933;52.302;8.134;2023-01-26T11:10:50;101227.41;;;-0.75;100.00
5814;BME280;2933;52.302;8.134;2023-01-26T11:16:02;101222.25;;;-0.63;100.00
5814;BME280;2933;52.302;8.134;2023-01-26T11:21:09;101230.72;;;-0.42;100.00
5814;BME280;2933;52.302;8.134;2023-01-26T11:26:42;101237.66;;;-0.74;100.00
5814;BME280;2933;52.302;8.134;2023-01-26T11:31:55;101236.81;;;-0.74;100.00
5814;BME280;2933;52.302;8.134;2023-01-26T11:37:16;101244.50;;;-0.76;100.00
5814;BME280;2933;52.302;8.134;2023-01-26T11:42:32;101235.06;;;-0.66;100.00
5814;BME280;2933;52.302;8.134;2023-01-26T11:47:47;101229.91;;;-0.46;100.00
5814;BME280;2933;52.302;8.134;2023-01-26T11:53:09;101215.28;;;-0.31;100.00
5814;BME280;2933;52.302;8.134;2023-01-26T11:58:26;101217.84;;;-0.28;100.00
5814;BME280;2933;52.302;8.134;2023-01-26T12:03:39;101206.69;;;-0.20;100.00
5814;BME280;2933;52.302;8.134;2023-01-26T12:08:46;101201.53;;;-0.23;100.00
5814;BME280;2933;52.302;8.134;2023-01-26T12:14:14;101198.97;;;-0.20;100.00
5814;BME280;2933;52.302;8.134;2023-01-26T12:19:30;101192.13;;;-0.16;100.00
5814;BME280;2933;52.302;8.134;2023-01-26T12:24:40;101182.69;;;-0.17;100.00
5814;BME280;2933;52.302;8.134;2023-01-26T12:29:49;101170.72;;;-0.18;100.00
5814;BME280;2933;52.302;8.134;2023-01-26T12:34:52;101160.41;;;-0.15;100.00
5814;BME280;2933;52.302;8.134;2023-01-26T12:40:01;101182.63;;;-0.03;100.00
5814;BME280;2933;52.302;8.134;2023-01-26T12:45:12;101171.47;;;0.03;100.00
5814;BME280;2933;52.302;8.134;2023-01-26T12:50:23;101168.09;;;-0.07;100.00
5814;BME280;2933;52.302;8.134;2023-01-26T12:55:31;101162.09;;;-0.05;100.00
5814;BME280;2933;52.302;8.134;2023-01-26T13:00:36;101160.34;;;-0.04;100.00
5814;BME280;2933;52.302;8.134;2023-01-26T13:05:54;101162.94;;;-0.09;100.00
5814;BME280;2933;52.302;8.134;2023-01-26T13:11:04;101167.28;;;-0.15;100.00
5814;BME280;2933;52.302;8.134;2023-01-26T13:16:31;101151.03;;;-0.16;100.00
5814;BME280;2933;52.302;8.134;2023-01-26T13:21:42;101157.84;;;-0.13;100.00
5814;BME280;2933;52.302;8.134;2023-01-26T13:26:46;101159.41;;;0.11;100.00
5814;BME280;2933;52.302;8.134;2023-01-26T13:31:49;101158.56;;;0.07;100.00
5814;BME280;2933;52.302;8.134;2023-01-26T13:36:53;101159.34;;;0.22;100.00
5814;BME280;2933;52.302;8.134;2023-01-26T13:41:57;101155.06;;;0.19;100.00
5814;BME280;2933;52.302;8.134;2023-01-26T13:47:01;101145.53;;;0.35;100.00
5814;BME280;2933;52.302;8.134;2023-01-26T13:52:16;101144.63;;;0.44;100.00
5814;BME280;2933;52.302;8.134;2023-01-26T13:57:22;101146.41;;;0.32;100.00
5814;BME280;2933;52.302;8.134;2023-01-26T14:02:26;101151.50;;;0.40;100.00
5814;BME280;2933;52.302;8.134;2023-01-26T14:07:33;101153.94;;;0.54;100.00
5814;BME280;2933;52.302;8.134;2023-01-26T14:12:42;101150.44;;;0.63;100.00
5814;BME280;2933;52.302;8.134;2023-01-26T14:17:48;101156.44;;;0.62;100.00
5814;BME280;2933;52.302;8.134;2023-01-26T14:23:12;101157.31;;;0.62;100.00
5814;BME280;2933;52.302;8.134;2023-01-26T14:28:16;101164.13;;;0.65;100.00
5814;BME280;2933;52.302;8.134;2023-01-26T14:33:21;101130.81;;;0.54;100.00
5814;BME280;2933;52.302;8.134;2023-01-26T14:38:24;101171.63;;;0.88;100.00
5814;BME280;2933;52.302;8.134;2023-01-26T14:43:29;101158.75;;;0.91;100.00
5814;BME280;2933;52.302;8.134;2023-01-26T14:48:32;101159.66;;;0.84;100.00
5814;BME280;2933;52.302;8.134;2023-01-26T14:53:35;101157.91;;;0.89;100.00
5814;BME280;2933;52.302;8.134;2023-01-26T14:58:38;101155.31;;;0.89;100.00
5814;BME280;2933;52.302;8.134;2023-01-26T15:03:40;101163.00;;;0.94;100.00
5814;BME280;2933;52.302;8.134;2023-01-26T15:08:52;101167.22;;;1.01;100.00
5814;BME280;2933;52.302;8.134;2023-01-26T15:13:56;101153.59;;;0.91;100.00
5814;BME280;2933;52.302;8.134;2023-01-26T15:18:58;101153.44;;;1.05;100.00
5814;BME280;2933;52.302;8.134;2023-01-26T15:24:00;101160.41;;;0.99;100.00
5814;BME280;2933;52.302;8.134;2023-01-26T15:29:16;101164.72;;;0.92;100.00
5814;BME280;2933;52.302;8.134;2023-01-26T15:34:30;101157.03;;;0.90;100.00
5814;BME280;2933;52.302;8.134;2023-01-26T15:39:32;101150.25;;;0.83;100.00
5814;BME280;2933;52.302;8.134;2023-01-26T15:44:35;101156.19;;;0.91;100.00
5814;BME280;2933;52.302;8.134;2023-01-26T15:49:37;101142.44;;;0.94;100.00
5814;BME280;2933;52.302;8.134;2023-01-26T15:54:39;101116.06;;;0.72;100.00
5814;BME280;2933;52.302;8.134;2023-01-26T15:59:42;101147.59;;;0.89;100.00
5814;BME280;2933;52.302;8.134;2023-01-26T16:04:44;101144.22;;;0.87;100.00
5814;BME280;2933;52.302;8.134;2023-01-26T16:09:45;101141.66;;;0.84;100.00
5814;BME280;2933;52.302;8.134;2023-01-26T16:14:49;101136.53;;;0.83;100.00
5814;BME280;2933;52.302;8.134;2023-01-26T16:19:51;101143.31;;;0.91;100.00
5814;BME280;2933;52.302;8.134;2023-01-26T16:24:59;101154.50;;;0.86;100.00
5814;BME280;2933;52.302;8.134;2023-01-26T16:30:02;101162.22;;;0.86;100.00
5814;BME280;2933;52.302;8.134;2023-01-26T16:35:09;101154.56;;;0.81;100.00
5814;BME280;2933;52.302;8.134;2023-01-26T16:40:13;101139.22;;;0.70;100.00
5814;BME280;2933;52.302;8.134;2023-01-26T16:45:18;101162.22;;;0.89;100.00
5814;BME280;2933;52.302;8.134;2023-01-26T16:50:21;101143.50;;;0.73;100.00
5814;BME280;2933;52.302;8.134;2023-01-26T16:55:23;101169.91;;;0.90;100.00
5814;BME280;2933;52.302;8.134;2023-01-26T17:00:26;101157.97;;;0.83;100.00
5814;BME280;2933;52.302;8.134;2023-01-26T17:05:27;101126.41;;;0.66;100.00
5814;BME280;2933;52.302;8.134;2023-01-26T17:10:29;101163.94;;;0.87;100.00
5814;BME280;2933;52.302;8.134;2023-01-26T17:15:32;101183.63;;;0.92;100.00
5814;BME280;2933;52.302;8.134;2023-01-26T17:20:34;101180.09;;;1.01;100.00
5814;BME280;2933;52.302;8.134;2023-01-26T17:25:35;101178.41;;;0.95;100.00
5814;BME280;2933;52.302;8.134;2023-01-26T17:30:38;101150.31;;;0.77;100.00
5814;BME280;2933;52.302;8.134;2023-01-26T17:35:40;101187.03;;;0.91;100.00
5814;BME280;2933;52.302;8.134;2023-01-26T17:40:41;101169.22;;;0.73;100.00
5814;BME280;2933;52.302;8.134;2023-01-26T17:45:44;101186.34;;;0.74;100.00
5814;BME280;2933;52.302;8.134;2023-01-26T17:50:46;101159.94;;;0.53;100.00
5814;BME280;2933;52.302;8.134;2023-01-26T17:55:48;101173.59;;;0.61;100.00
5814;BME280;2933;52.302;8.134;2023-01-26T18:00:51;101190.75;;;0.59;100.00
5814;BME280;2933;52.302;8.134;2023-01-26T18:05:54;101199.28;;;0.63;100.00
5814;BME280;2933;52.302;8.134;2023-01-26T18:10:56;101154.97;;;0.36;100.00
5814;BME280;2933;52.302;8.134;2023-01-26T18:16:00;101195.00;;;0.62;100.00
5814;BME280;2933;52.302;8.134;2023-01-26T18:21:09;101193.25;;;0.70;100.00
5814;BME280;2933;52.302;8.134;2023-01-26T18:26:12;101188.13;;;0.66;100.00
5814;BME280;2933;52.302;8.134;2023-01-26T18:31:17;101198.41;;;0.67;100.00
5814;BME280;2933;52.302;8.134;2023-01-26T18:36:20;101211.28;;;0.66;100.00
5814;BME280;2933;52.302;8.134;2023-01-26T18:41:22;101206.16;;;0.64;100.00
5814;BME280;2933;52.302;8.134;2023-01-26T18:46:26;101217.28;;;0.64;100.00
5814;BME280;2933;52.302;8.134;2023-01-26T18:51:31;101216.41;;;0.67;100.00
5814;BME280;2933;52.302;8.134;2023-01-26T18:56:33;101218.84;;;0.84;100.00
5814;BME280;2933;52.302;8.134;2023-01-26T19:01:37;101229.00;;;1.00;100.00
5814;BME280;2933;52.302;8.134;2023-01-26T19:06:39;101228.53;;;1.43;100.00
5814;BME280;2933;52.302;8.134;2023-01-26T19:11:40;101222.25;;;1.69;100.00
5814;BME280;2933;52.302;8.134;2023-01-26T19:16:43;101206.91;;;1.59;100.00
5814;BME280;2933;52.302;8.134;2023-01-26T19:21:48;101211.13;;;1.67;100.00
5814;BME280;2933;52.302;8.134;2023-01-26T19:26:49;101235.03;;;1.76;100.00
5814;BME280;2933;52.302;8.134;2023-01-26T19:31:52;101232.47;;;1.78;100.00
5814;BME280;2933;52.302;8.134;2023-01-26T19:36:54;101228.97;;;1.82;100.00
5814;BME280;2933;52.302;8.134;2023-01-26T19:41:55;101226.34;;;1.87;100.00
5814;BME280;2933;52.302;8.134;2023-01-26T19:46:58;101234.84;;;1.92;100.00
5814;BME280;2933;52.302;8.134;2023-01-26T19:52:00;101239.06;;;1.98;100.00
5814;BME280;2933;52.302;8.134;2023-01-26T19:57:01;101239.13;;;1.93;100.00
5814;BME280;2933;52.302;8.134;2023-01-26T20:02:04;101219.66;;;1.72;100.00
5814;BME280;2933;52.302;8.134;2023-01-26T20:07:06;101237.53;;;1.83;100.00
5814;BME280;2933;52.302;8.134;2023-01-26T20:12:08;101236.81;;;1.73;100.00
5814;BME280;2933;52.302;8.134;2023-01-26T20:17:11;101246.19;;;1.77;100.00
5814;BME280;2933;52.302;8.134;2023-01-26T20:22:13;101241.03;;;1.77;100.00
5814;BME280;2933;52.302;8.134;2023-01-26T20:27:15;101247.13;;;1.73;100.00
5814;BME280;2933;52.302;8.134;2023-01-26T20:32:18;101252.22;;;1.76;100.00
5814;BME280;2933;52.302;8.134;2023-01-26T20:37:19;101251.34;;;1.77;100.00
5814;BME280;2933;52.302;8.134;2023-01-26T20:42:21;101250.47;;;1.80;100.00
5814;BME280;2933;52.302;8.134;2023-01-26T20:47:25;101223.19;;;1.61;100.00
5814;BME280;2933;52.302;8.134;2023-01-26T20:52:27;101248.81;;;1.75;100.00
5814;BME280;2933;52.302;8.134;2023-01-26T20:57:29;101242.03;;;1.67;100.00
5814;BME280;2933;52.302;8.134;2023-01-26T21:02:32;101249.69;;;1.71;100.00
5814;BME280;2933;52.302;8.134;2023-01-26T21:07:34;101250.63;;;1.64;100.00
5814;BME280;2933;52.302;8.134;2023-01-26T21:12:35;101249.81;;;1.62;100.00
5814;BME280;2933;52.302;8.134;2023-01-26T21:17:38;101246.28;;;1.68;100.00
5814;BME280;2933;52.302;8.134;2023-01-26T21:22:40;101238.66;;;1.60;100.00
5814;BME280;2933;52.302;8.134;2023-01-26T21:27:42;101250.56;;;1.72;100.00
5814;BME280;2933;52.302;8.134;2023-01-26T21:32:45;101249.69;;;1.73;100.00
5814;BME280;2933;52.302;8.134;2023-01-26T21:37:46;101220.72;;;1.52;100.00
5814;BME280;2933;52.302;8.134;2023-01-26T21:42:48;101252.25;;;1.74;100.00
5814;BME280;2933;52.302;8.134;2023-01-26T21:47:51;101254.78;;;1.76;100.00
5814;BME280;2933;52.302;8.134;2023-01-26T21:53:06;101256.50;;;1.77;100.00
5814;BME280;2933;52.302;8.134;2023-01-26T21:58:08;101247.91;;;1.76;100.00
5814;BME280;2933;52.302;8.134;2023-01-26T22:03:28;101228.25;;;1.68;100.00
5814;BME280;2933;52.302;8.134;2023-01-26T22:08:30;101245.41;;;1.72;100.00
5814;BME280;2933;52.302;8.134;2023-01-26T22:13:33;101259.06;;;1.78;100.00
5814;BME280;2933;52.302;8.134;2023-01-26T22:18:36;101258.19;;;1.80;100.00
5814;BME280;2933;52.302;8.134;2023-01-26T22:23:39;101273.72;;;1.73;100.00
5814;BME280;2933;52.302;8.134;2023-01-26T22:28:41;101281.63;;;1.56;100.00
5814;BME280;2933;52.302;8.134;2023-01-26T22:33:51;101270.72;;;1.33;100.00
5814;BME280;2933;52.302;8.134;2023-01-26T22:38:52;101283.59;;;1.33;100.00
5814;BME280;2933;52.302;8.134;2023-01-26T22:43:56;101291.41;;;1.23;100.00
5814;BME280;2933;52.302;8.134;2023-01-26T22:49:00;101290.53;;;1.24;100.00
5814;BME280;2933;52.302;8.134;2023-01-26T22:54:01;101288.97;;;1.06;100.00
5814;BME280;2933;52.302;8.134;2023-01-26T22:59:03;101303.50;;;1.13;100.00
5814;BME280;2933;52.302;8.134;2023-01-26T23:04:06;101311.28;;;1.06;100.00
5814;BME280;2933;52.302;8.134;2023-01-26T23:09:07;101312.97;;;1.07;100.00
5814;BME280;2933;52.302;8.134;2023-01-26T23:14:09;101310.50;;;0.98;100.00
5814;BME280;2933;52.302;8.134;2023-01-26T23:19:12;101301.88;;;1.00;100.00
5814;BME280;2933;52.302;8.134;2023-01-26T23:24:13;101298.44;;;1.06;100.00
5814;BME280;2933;52.302;8.134;2023-01-26T23:29:15;101298.47;;;1.01;100.00
5814;BME280;2933;52.302;8.134;2023-01-26T23:34:18;101269.50;;;0.76;100.00
5814;BME280;2933;52.302;8.134;2023-01-26T23:39:20;101282.31;;;0.84;100.00
5814;BME280;2933;52.302;8.134;2023-01-26T23:44:21;101313.91;;;0.96;100.00
5814;BME280;2933;52.302;8.134;2023-01-26T23:49:24;101288.31;;;0.81;100.00
5814;BME280;2933;52.302;8.134;2023-01-26T23:54:25;101311.31;;;0.98;100.00
5814;BME280;2933;52.302;8.134;2023-01-26T23:59:27;101313.09;;;0.91;100.00
